createdAt,value
2022-09-13T00:02:06.111Z,58.20
2022-09-13T00:04:33.646Z,52.22
2022-09-13T00:07:01.127Z,56.50
2022-09-13T00:09:28.576Z,60.08
2022-09-13T00:11:56.041Z,56.17
2022-09-13T00:14:26.560Z,52.80
2022-09-13T00:16:55.383Z,27.67
2022-09-13T00:19:22.860Z,55.97
2022-09-13T00:21:50.336Z,65.57
2022-09-13T00:24:17.805Z,55.95
2022-09-13T00:26:45.755Z,55.35
2022-09-13T00:29:13.293Z,47.97
2022-09-13T00:31:41.504Z,35.67
2022-09-13T00:34:10.374Z,57.35
2022-09-13T00:36:37.838Z,52.22
2022-09-13T00:39:05.314Z,42.13
2022-09-13T00:41:33.567Z,50.45
2022-09-13T00:44:02.647Z,47.30
2022-09-13T00:46:37.335Z,28.77
2022-09-13T00:49:17.633Z,17.60
2022-09-13T00:51:50.184Z,36.20
2022-09-13T00:54:21.291Z,53.00
2022-09-13T00:56:52.243Z,51.45
2022-09-13T00:59:24.816Z,40.75
2022-09-13T01:01:55.199Z,41.40
2022-09-13T01:04:26.932Z,54.05
2022-09-13T01:06:58.176Z,57.00
2022-09-13T01:09:26.943Z,48.88
2022-09-13T01:12:00.576Z,57.85
2022-09-13T01:14:28.832Z,35.85
2022-09-13T01:16:56.427Z,33.03
2022-09-13T01:19:25.435Z,23.67
2022-09-13T01:22:21.546Z,20.40
2022-09-13T01:24:59.918Z,24.67
2022-09-13T01:27:37.104Z,33.00
2022-09-13T01:30:19.016Z,30.30
2022-09-13T01:33:07.534Z,24.85
2022-09-13T01:35:50.818Z,18.70
2022-09-13T01:38:31.259Z,45.53
2022-09-13T01:41:07.823Z,49.65
2022-09-13T01:43:47.984Z,44.60
2022-09-13T01:46:19.955Z,47.53
2022-09-13T01:48:57.814Z,38.07
2022-09-13T01:51:33.319Z,24.85
2022-09-13T01:54:13.776Z,43.53
2022-09-13T01:56:51.403Z,61.30
2022-09-13T01:59:25.238Z,53.33
2022-09-13T02:02:00.366Z,38.43
2022-09-13T02:04:31.606Z,45.45
2022-09-13T02:07:03.864Z,45.50
2022-09-13T02:09:36.346Z,31.63
2022-09-13T02:12:10.061Z,49.23
2022-09-13T02:14:40.243Z,45.47
2022-09-13T02:17:13.471Z,59.22
2022-09-13T02:19:44.722Z,54.37
2022-09-13T02:22:17.207Z,52.08
2022-09-13T02:24:49.094Z,63.03
2022-09-13T02:27:21.330Z,49.72
2022-09-13T02:29:51.841Z,53.23
2022-09-13T02:32:25.180Z,47.35
2022-09-13T02:34:57.657Z,62.83
2022-09-13T02:37:29.007Z,55.08
2022-09-13T02:40:01.093Z,68.57
2022-09-13T02:42:36.378Z,58.08
2022-09-13T02:45:04.310Z,49.70
2022-09-13T02:47:42.204Z,37.85
2022-09-13T02:50:27.068Z,42.63
2022-09-13T02:53:04.541Z,45.13
2022-09-13T02:55:40.340Z,33.75
2022-09-13T02:58:14.634Z,29.35
2022-09-13T03:00:42.549Z,36.35
2022-09-13T03:03:15.550Z,60.30
2022-09-13T03:05:44.012Z,95.80
2022-09-13T03:08:15.522Z,441.13
2022-09-13T03:10:52.397Z,492.13
2022-09-13T03:13:46.254Z,449.83
2022-09-13T03:16:30.851Z,507.40
2022-09-13T03:19:18.251Z,457.95
2022-09-13T03:22:07.929Z,364.25
2022-09-13T03:24:51.136Z,390.38
2022-09-13T03:27:26.675Z,343.98
2022-09-13T03:29:59.677Z,352.17
2022-09-13T03:32:35.977Z,264.38
2022-09-13T03:35:16.050Z,245.60
2022-09-13T03:37:53.395Z,466.83
2022-09-13T03:40:26.697Z,422.13
2022-09-13T03:42:59.838Z,501.27
2022-09-13T03:45:33.236Z,496.58
2022-09-13T03:48:03.187Z,465.77
2022-09-13T03:50:32.745Z,357.50
2022-09-13T03:53:04.331Z,435.73
2022-09-13T03:55:34.376Z,313.23
2022-09-13T03:58:02.103Z,603.05
2022-09-13T04:00:30.048Z,449.10
2022-09-13T04:02:57.810Z,309.83
2022-09-13T04:05:25.294Z,546.30
2022-09-13T04:07:54.107Z,508.92
2022-09-13T04:10:21.731Z,589.15
2022-09-13T04:12:49.358Z,540.47
2022-09-13T04:15:16.861Z,329.85
2022-09-13T04:17:44.357Z,381.48
2022-09-13T04:20:12.266Z,528.97
2022-09-13T04:22:39.739Z,562.70
2022-09-13T04:25:09.945Z,446.45
2022-09-13T04:27:37.521Z,402.33
2022-09-13T04:30:05.794Z,405.60
2022-09-13T04:32:33.713Z,406.75
2022-09-13T04:35:01.286Z,379.27
2022-09-13T04:37:28.747Z,320.42
2022-09-13T04:39:56.261Z,405.83
2022-09-13T04:42:25.120Z,404.80
2022-09-13T04:44:52.584Z,355.17
2022-09-13T04:47:20.076Z,396.80
2022-09-13T04:49:48.542Z,288.85
2022-09-13T04:52:16.081Z,352.98
2022-09-13T04:54:43.681Z,283.98
2022-09-13T04:57:12.342Z,320.48
2022-09-13T04:59:41.187Z,320.70
2022-09-13T05:02:08.701Z,353.42
2022-09-13T05:04:36.210Z,317.33
2022-09-13T05:07:03.758Z,336.33
2022-09-13T05:09:31.233Z,323.40
2022-09-13T05:11:58.690Z,273.35
2022-09-13T05:14:26.155Z,328.67
2022-09-13T05:16:54.948Z,356.42
2022-09-13T05:19:22.427Z,263.23
2022-09-13T05:21:49.879Z,189.70
2022-09-13T05:24:17.352Z,219.70
2022-09-13T05:26:44.793Z,228.38
2022-09-13T05:29:12.246Z,221.27
2022-09-13T05:31:41.631Z,215.02
2022-09-13T05:34:12.985Z,207.48
2022-09-13T05:36:41.049Z,163.45
2022-09-13T05:39:30.317Z,180.30
2022-09-13T05:42:00.959Z,325.42
2022-09-13T05:44:28.383Z,183.20
2022-09-13T05:46:55.800Z,134.73
2022-09-13T05:49:24.534Z,151.85
2022-09-13T05:51:51.958Z,161.88
2022-09-13T05:54:19.623Z,247.82
2022-09-13T05:56:47.438Z,124.47
2022-09-13T05:59:15.222Z,123.28
2022-09-13T06:01:42.816Z,128.45
2022-09-13T06:04:12.364Z,329.40
2022-09-13T06:06:41.150Z,209.32
2022-09-13T06:09:09.266Z,215.20
2022-09-13T06:11:36.679Z,165.18
2022-09-13T06:14:04.285Z,243.85
2022-09-13T06:16:31.781Z,261.35
2022-09-13T06:18:59.250Z,180.90
2022-09-13T06:21:29.186Z,101.93
2022-09-13T06:23:58.276Z,114.38
2022-09-13T06:26:27.098Z,84.60
2022-09-13T06:28:56.614Z,62.95
2022-09-13T06:31:26.146Z,63.22
2022-09-13T06:33:57.851Z,59.35
2022-09-13T06:36:25.724Z,58.75
2022-09-13T06:38:53.211Z,50.80
2022-09-13T06:41:23.675Z,53.85
2022-09-13T06:43:54.839Z,48.35
2022-09-13T06:46:25.109Z,44.88
2022-09-13T06:48:53.514Z,47.30
2022-09-13T06:51:22.676Z,52.38
2022-09-13T06:53:51.674Z,57.28
2022-09-13T06:56:23.115Z,48.00
2022-09-13T06:58:52.966Z,47.63
2022-09-13T07:01:23.106Z,44.15
2022-09-13T07:03:52.494Z,41.13
2022-09-13T07:06:22.716Z,42.47
2022-09-13T07:08:51.801Z,32.85
2022-09-13T07:11:23.066Z,30.98
2022-09-13T07:13:51.301Z,29.45
2022-09-13T07:16:20.515Z,31.20
2022-09-13T07:18:52.600Z,27.75
2022-09-13T07:21:20.570Z,25.13
2022-09-13T07:23:48.086Z,25.25
2022-09-13T07:26:15.871Z,23.63
2022-09-13T07:28:47.349Z,23.25
2022-09-13T07:31:16.796Z,24.73
2022-09-13T07:33:46.239Z,20.63
2022-09-13T07:36:14.759Z,26.65
2022-09-13T07:38:45.170Z,26.70
2022-09-13T07:41:14.877Z,35.13
2022-09-13T07:43:44.537Z,25.42
2022-09-13T07:46:13.965Z,43.28
2022-09-13T07:48:43.260Z,30.30
2022-09-13T07:51:12.950Z,32.72
2022-09-13T07:53:42.455Z,49.80
2022-09-13T07:56:11.557Z,44.88
2022-09-13T07:58:40.544Z,32.90
2022-09-13T08:01:12.011Z,35.00
2022-09-13T08:03:39.655Z,31.05
2022-09-13T08:06:08.626Z,25.05
2022-09-13T08:08:37.222Z,18.70
2022-09-13T08:11:06.204Z,16.45
2022-09-13T08:13:34.758Z,22.15
2022-09-13T08:16:04.313Z,22.95
2022-09-13T08:18:33.551Z,19.92
2022-09-13T08:21:02.384Z,16.60
2022-09-13T08:23:29.906Z,17.35
2022-09-13T08:26:02.680Z,18.70
2022-09-13T08:28:31.502Z,23.40
2022-09-13T08:31:04.664Z,18.85
2022-09-13T08:33:34.179Z,16.65
2022-09-13T08:36:02.324Z,17.33
2022-09-13T08:38:30.289Z,18.85
2022-09-13T08:41:00.735Z,18.63
2022-09-13T08:43:49.703Z,12.05
2022-09-13T08:46:24.361Z,13.05
2022-09-13T08:48:57.866Z,14.15
2022-09-13T08:51:33.277Z,13.38
2022-09-13T08:54:02.956Z,11.05
2022-09-13T08:56:39.290Z,11.18
2022-09-13T08:59:36.759Z,12.95
2022-09-13T09:02:21.639Z,12.82
2022-09-13T09:04:56.695Z,12.13
2022-09-13T09:07:27.310Z,12.82
2022-09-13T09:09:57.632Z,15.40
2022-09-13T09:12:34.082Z,11.75
2022-09-13T09:15:05.921Z,12.63
2022-09-13T09:17:43.772Z,10.68
2022-09-13T09:20:25.457Z,14.18
2022-09-13T09:22:55.087Z,12.48
2022-09-13T09:25:26.087Z,14.50
2022-09-13T09:27:54.668Z,14.48
2022-09-13T09:30:22.338Z,20.50
2022-09-13T09:33:03.604Z,20.85
2022-09-13T09:35:47.523Z,17.55
2022-09-13T09:38:31.166Z,17.23
2022-09-13T09:41:04.063Z,16.73
2022-09-13T09:43:35.235Z,29.73
2022-09-13T09:46:04.987Z,18.25
2022-09-13T09:48:42.048Z,18.45
2022-09-13T09:51:14.485Z,15.50
2022-09-13T09:53:47.391Z,16.10
2022-09-13T09:56:23.677Z,19.65
2022-09-13T09:58:53.074Z,19.25
2022-09-13T10:01:25.276Z,17.73
2022-09-13T10:03:59.064Z,19.15
2022-09-13T10:06:30.186Z,28.05
2022-09-13T10:09:01.134Z,21.23
2022-09-13T10:11:43.420Z,10.90
2022-09-13T10:14:30.544Z,16.30
2022-09-13T10:17:16.397Z,14.00
2022-09-13T10:19:54.195Z,14.82
2022-09-13T10:22:23.446Z,12.65
2022-09-13T10:24:51.580Z,16.63
2022-09-13T10:27:26.828Z,19.20
2022-09-13T10:29:59.647Z,14.50
2022-09-13T10:32:28.560Z,12.35
2022-09-13T10:35:01.398Z,16.95
2022-09-13T10:37:33.597Z,17.45
2022-09-13T10:40:07.108Z,19.00
2022-09-13T10:42:34.877Z,13.23
2022-09-13T10:45:04.150Z,14.88
2022-09-13T10:47:35.694Z,15.65
2022-09-13T10:50:20.958Z,13.90
2022-09-13T10:52:51.651Z,14.48
2022-09-13T10:55:32.199Z,16.15
2022-09-13T10:58:19.551Z,13.05
2022-09-13T11:01:17.640Z,10.38
2022-09-13T11:04:22.173Z,16.73
2022-09-13T11:07:02.079Z,15.05
2022-09-13T11:09:37.627Z,16.35
2022-09-13T11:12:18.390Z,11.95
2022-09-13T11:14:58.535Z,9.95
2022-09-13T11:17:43.110Z,10.77
2022-09-13T11:20:24.269Z,14.18
2022-09-13T11:23:15.831Z,24.00
2022-09-13T11:25:58.392Z,33.05
2022-09-13T11:28:37.572Z,25.77
2022-09-13T11:31:23.219Z,23.83
2022-09-13T11:33:59.673Z,25.42
2022-09-13T11:37:06.542Z,23.50
2022-09-13T11:39:38.810Z,17.60
2022-09-13T11:42:23.099Z,16.33
2022-09-13T11:45:07.415Z,16.00
2022-09-13T11:47:46.226Z,20.05
2022-09-13T11:50:26.008Z,15.50
2022-09-13T11:53:05.670Z,14.27
2022-09-13T11:55:36.412Z,14.27
2022-09-13T11:58:11.275Z,10.43
2022-09-13T12:00:44.029Z,13.70
2022-09-13T12:03:20.756Z,16.63
2022-09-13T12:05:53.361Z,14.50
2022-09-13T12:08:24.640Z,13.52
2022-09-13T12:10:55.665Z,16.60
2022-09-13T12:13:27.418Z,19.23
2022-09-13T12:15:58.520Z,13.15
2022-09-13T12:18:29.063Z,12.73
2022-09-13T12:21:00.189Z,17.63
2022-09-13T12:23:32.679Z,13.02
2022-09-13T12:26:04.223Z,13.95
2022-09-13T12:28:38.484Z,17.27
2022-09-13T12:31:10.855Z,34.15
2022-09-13T12:33:40.815Z,18.00
2022-09-13T12:36:31.483Z,35.85
2022-09-13T12:39:21.833Z,25.83
2022-09-13T12:42:06.000Z,27.17
2022-09-13T12:44:47.622Z,51.03
2022-09-13T12:48:01.683Z,31.42
2022-09-13T12:50:51.092Z,26.55
2022-09-13T12:53:52.530Z,24.83
2022-09-13T12:56:34.127Z,30.85
2022-09-13T12:59:20.778Z,27.23
2022-09-13T13:01:52.117Z,35.30
2022-09-13T13:04:23.428Z,53.35
2022-09-13T13:06:54.580Z,50.33
2022-09-13T13:09:29.000Z,47.97
2022-09-13T13:11:58.318Z,54.40
2022-09-13T13:14:29.903Z,46.42
2022-09-13T13:17:29.833Z,36.42
2022-09-13T13:19:58.654Z,30.67
2022-09-13T13:22:49.947Z,30.42
2022-09-13T13:25:55.482Z,51.45
2022-09-13T13:28:52.396Z,42.25
2022-09-13T13:31:40.420Z,30.73
2022-09-13T13:34:28.793Z,46.70
2022-09-13T13:37:02.071Z,69.53
2022-09-13T13:39:38.283Z,50.85
2022-09-13T13:42:14.048Z,52.40
2022-09-13T13:45:15.898Z,34.78
2022-09-13T13:47:55.671Z,51.20
2022-09-13T13:50:23.649Z,51.35
2022-09-13T13:53:06.136Z,43.95
2022-09-13T13:55:46.803Z,33.72
2022-09-13T13:58:35.734Z,43.53
2022-09-13T14:01:04.208Z,43.58
2022-09-13T14:03:51.316Z,45.13
2022-09-13T14:06:24.028Z,45.08
2022-09-13T14:09:03.507Z,29.17
2022-09-13T14:11:46.514Z,20.42
2022-09-13T14:14:35.115Z,41.72
2022-09-13T14:17:36.146Z,46.70
2022-09-13T14:20:10.360Z,46.55
2022-09-13T14:22:37.831Z,41.92
2022-09-13T14:25:25.004Z,35.92
2022-09-13T14:27:57.699Z,42.08
2022-09-13T14:30:30.423Z,36.97
2022-09-13T14:32:59.611Z,30.80
2022-09-13T14:35:31.238Z,41.97
2022-09-13T14:38:12.463Z,28.00
2022-09-13T14:40:41.300Z,24.90
2022-09-13T14:43:16.710Z,34.85
2022-09-13T14:45:46.146Z,32.33
2022-09-13T14:48:19.945Z,27.77
2022-09-13T14:50:51.567Z,36.35
2022-09-13T14:53:22.253Z,23.10
2022-09-13T14:55:55.591Z,25.75
2022-09-13T14:58:27.643Z,26.85
2022-09-13T15:00:59.794Z,23.33
2022-09-13T15:03:28.133Z,23.55
2022-09-13T15:05:58.931Z,24.73
2022-09-13T15:08:47.011Z,21.08
2022-09-13T15:11:27.972Z,16.00
2022-09-13T15:14:03.329Z,33.25
2022-09-13T15:16:32.591Z,16.92
2022-09-13T15:19:29.788Z,26.13
2022-09-13T15:22:05.035Z,19.58
2022-09-13T15:24:34.922Z,17.55
2022-09-13T15:27:06.223Z,26.67
2022-09-13T15:29:37.032Z,24.02
2022-09-13T15:32:06.585Z,23.85
2022-09-13T15:34:34.106Z,27.48
2022-09-13T15:37:11.493Z,21.15
2022-09-13T15:39:48.323Z,40.47
2022-09-13T15:42:18.126Z,31.95
2022-09-13T15:44:45.567Z,44.45
2022-09-13T15:47:17.783Z,35.22
2022-09-13T15:49:51.178Z,31.20
2022-09-13T15:52:19.545Z,25.33
2022-09-13T15:54:49.198Z,20.58
2022-09-13T15:57:22.252Z,21.85
2022-09-13T15:59:49.785Z,16.35
2022-09-13T16:02:21.229Z,33.42
2022-09-13T16:04:48.993Z,18.58
2022-09-13T16:07:17.050Z,28.05
2022-09-13T16:09:44.764Z,18.15
2022-09-13T16:12:12.335Z,27.90
2022-09-13T16:14:41.263Z,19.25
2022-09-13T16:17:13.639Z,17.48
2022-09-13T16:19:41.274Z,31.13
2022-09-13T16:22:12.519Z,19.17
2022-09-13T16:24:40.306Z,24.67
2022-09-13T16:27:07.796Z,27.88
2022-09-13T16:29:35.222Z,20.63
2022-09-13T16:32:05.202Z,20.25
2022-09-13T16:34:32.656Z,22.60
2022-09-13T16:37:00.127Z,20.15
2022-09-13T16:39:27.703Z,19.05
2022-09-13T16:41:55.461Z,17.73
2022-09-13T16:44:22.940Z,19.02
2022-09-13T16:46:50.514Z,17.70
2022-09-13T16:49:19.349Z,18.02
2022-09-13T16:51:46.811Z,19.67
2022-09-13T16:54:14.267Z,22.00
2022-09-13T16:56:41.868Z,30.67
2022-09-13T16:59:09.515Z,23.55
2022-09-13T17:01:37.222Z,19.95
2022-09-13T17:04:05.830Z,16.35
2022-09-13T17:06:34.659Z,16.05
2022-09-13T17:09:05.270Z,14.70
2022-09-13T17:11:34.458Z,13.15
2022-09-13T17:14:04.306Z,15.45
2022-09-13T17:16:34.636Z,17.27
2022-09-13T17:19:04.806Z,15.55
2022-09-13T17:21:34.559Z,16.80
2022-09-13T17:24:02.781Z,19.45
2022-09-13T17:26:30.338Z,17.10
2022-09-13T17:28:57.807Z,15.93
2022-09-13T17:31:25.319Z,17.58
2022-09-13T17:33:53.174Z,16.88
2022-09-13T17:36:20.933Z,17.25
2022-09-13T17:38:50.164Z,18.65
2022-09-13T17:41:19.310Z,17.67
2022-09-13T17:43:47.812Z,17.40
2022-09-13T17:46:17.635Z,16.10
2022-09-13T17:48:45.692Z,18.38
2022-09-13T17:51:15.262Z,18.55
2022-09-13T17:53:45.286Z,22.20
2022-09-13T17:56:18.562Z,14.05
2022-09-13T17:58:46.688Z,15.30
2022-09-13T18:01:14.743Z,17.42
2022-09-13T18:03:42.493Z,14.77
2022-09-13T18:06:11.662Z,18.00
2022-09-13T18:08:39.919Z,19.58
2022-09-13T18:11:13.955Z,22.10
2022-09-13T18:13:44.129Z,16.55
2022-09-13T18:16:18.527Z,26.98
2022-09-13T18:18:48.993Z,37.65
2022-09-13T18:21:19.004Z,23.13
2022-09-13T18:23:47.751Z,16.63
2022-09-13T18:26:17.566Z,21.65
2022-09-13T18:28:47.566Z,17.42
2022-09-13T18:31:16.824Z,21.75
2022-09-13T18:33:45.063Z,24.23
2022-09-13T18:36:14.412Z,21.42
2022-09-13T18:38:43.594Z,18.52
2022-09-13T18:41:13.048Z,19.63
2022-09-13T18:43:42.309Z,18.77
2022-09-13T18:46:13.318Z,21.80
2022-09-13T18:48:42.371Z,20.20
2022-09-13T18:51:11.679Z,20.67
2022-09-13T18:53:39.976Z,20.98
2022-09-13T18:56:09.588Z,20.05
2022-09-13T18:58:38.741Z,22.30
2022-09-13T19:01:08.782Z,22.88
2022-09-13T19:03:38.538Z,22.10
2022-09-13T19:06:11.500Z,22.70
2022-09-13T19:08:39.053Z,25.98
2022-09-13T19:11:15.492Z,25.15
2022-09-13T19:13:51.465Z,25.70
2022-09-13T19:16:21.231Z,26.02
2022-09-13T19:18:51.748Z,23.95
2022-09-13T19:21:21.158Z,26.17
2022-09-13T19:23:59.566Z,27.00
2022-09-13T19:26:30.857Z,22.83
2022-09-13T19:29:05.015Z,21.40
2022-09-13T19:31:34.167Z,20.77
2022-09-13T19:34:03.704Z,24.27
2022-09-13T19:36:34.360Z,23.13
2022-09-13T19:39:02.583Z,25.30
2022-09-13T19:41:31.120Z,22.27
2022-09-13T19:44:01.134Z,22.33
2022-09-13T19:46:31.446Z,23.27
2022-09-13T19:49:00.216Z,27.98
2022-09-13T19:51:30.977Z,29.98
2022-09-13T19:54:00.097Z,25.33
2022-09-13T19:56:29.130Z,27.13
2022-09-13T19:58:57.152Z,29.45
2022-09-13T20:01:26.859Z,31.92
2022-09-13T20:03:55.842Z,27.88
2022-09-13T20:06:24.967Z,28.73
2022-09-13T20:08:58.010Z,23.60
2022-09-13T20:11:26.068Z,27.38
2022-09-13T20:13:53.664Z,21.65
2022-09-13T20:16:22.862Z,26.98
2022-09-13T20:18:50.945Z,27.55
2022-09-13T20:21:19.012Z,34.22
2022-09-13T20:23:47.410Z,29.08
2022-09-13T20:26:17.963Z,26.05
2022-09-13T20:28:47.156Z,27.00
2022-09-13T20:31:15.346Z,25.90
2022-09-13T20:33:43.456Z,31.38
2022-09-13T20:36:13.144Z,30.48
2022-09-13T20:38:41.579Z,29.75
2022-09-13T20:41:11.589Z,34.50
2022-09-13T20:43:41.641Z,35.40
2022-09-13T20:46:12.790Z,38.83
2022-09-13T20:48:40.850Z,36.72
2022-09-13T20:51:12.484Z,36.00
2022-09-13T20:53:40.447Z,35.58
2022-09-13T20:56:09.944Z,36.67
2022-09-13T20:58:38.340Z,36.05
2022-09-13T21:01:09.485Z,36.65
2022-09-13T21:03:38.622Z,39.05
2022-09-13T21:06:07.131Z,36.75
2022-09-13T21:08:42.513Z,39.35
2022-09-13T21:11:12.651Z,35.88
2022-09-13T21:13:44.492Z,38.15
2022-09-13T21:16:15.510Z,40.33
2022-09-13T21:18:44.288Z,33.05
2022-09-13T21:21:14.737Z,43.15
2022-09-13T21:23:42.948Z,42.10
2022-09-13T21:26:12.300Z,45.08
2022-09-13T21:28:42.658Z,43.38
2022-09-13T21:31:18.353Z,40.97
2022-09-13T21:33:48.419Z,39.80
2022-09-13T21:36:16.032Z,40.53
2022-09-13T21:38:43.524Z,38.55
2022-09-13T21:41:13.491Z,40.97
2022-09-13T21:43:41.834Z,42.90
2022-09-13T21:46:13.070Z,45.10
2022-09-13T21:48:43.698Z,44.03
2022-09-13T21:51:16.089Z,41.08
2022-09-13T21:53:44.613Z,38.15
2022-09-13T21:56:14.624Z,36.60
2022-09-13T21:58:42.241Z,36.60
2022-09-13T22:01:17.579Z,40.83
2022-09-13T22:03:47.539Z,43.88
2022-09-13T22:06:15.965Z,43.03
2022-09-13T22:08:45.359Z,40.15
2022-09-13T22:11:14.227Z,37.17
2022-09-13T22:13:45.459Z,38.83
2022-09-13T22:16:15.988Z,37.28
2022-09-13T22:18:43.575Z,41.33
2022-09-13T22:21:14.447Z,38.47
2022-09-13T22:23:42.275Z,38.20
2022-09-13T22:26:12.394Z,42.80
2022-09-13T22:28:39.981Z,44.53
2022-09-13T22:31:09.174Z,41.15
2022-09-13T22:33:37.773Z,39.25
2022-09-13T22:36:07.755Z,40.90
2022-09-13T22:38:37.798Z,41.30
2022-09-13T22:41:07.650Z,41.25
2022-09-13T22:43:35.804Z,39.63
2022-09-13T22:46:05.652Z,41.20
2022-09-13T22:48:33.707Z,38.85
2022-09-13T22:51:01.128Z,35.10
2022-09-13T22:53:28.752Z,46.42
2022-09-13T22:56:03.096Z,29.58
2022-09-13T22:58:31.353Z,37.45
2022-09-13T23:01:04.260Z,30.67
2022-09-13T23:03:31.942Z,29.98
2022-09-13T23:05:59.451Z,32.70
2022-09-13T23:08:27.271Z,35.00
2022-09-13T23:10:55.967Z,29.52
2022-09-13T23:13:24.860Z,34.58
2022-09-13T23:15:52.318Z,32.65
2022-09-13T23:18:19.754Z,34.60
2022-09-13T23:20:56.616Z,32.47
2022-09-13T23:23:24.090Z,36.58
2022-09-13T23:25:51.906Z,32.42
2022-09-13T23:28:19.471Z,32.67
2022-09-13T23:30:48.237Z,32.17
2022-09-13T23:33:16.780Z,37.40
2022-09-13T23:35:45.736Z,41.70
2022-09-13T23:38:13.313Z,31.73
2022-09-13T23:40:41.032Z,30.77
2022-09-13T23:43:08.636Z,36.13
2022-09-13T23:45:36.176Z,32.20
2022-09-13T23:48:05.340Z,33.22
2022-09-13T23:50:32.816Z,29.73
2022-09-13T23:53:00.389Z,34.95
2022-09-13T23:55:27.865Z,30.67
2022-09-13T23:57:55.311Z,40.05
